sensor_id;sensor_type;location;lat;lon;timestamp;pressure;altitude;pressure_sealevel;temperature;humidity
59315;BME280;46521;50.160;20.802;2023-02-19T00:09:14;99322.42;;;5.58;79.08
59315;BME280;46521;50.160;20.802;2023-02-19T00:19:18;99336.69;;;5.46;79.35
59315;BME280;46521;50.160;20.802;2023-02-19T00:29:20;99332.14;;;5.38;79.28
59315;BME280;46521;50.160;20.802;2023-02-19T00:39:21;99324.31;;;5.29;79.47
59315;BME280;46521;50.160;20.802;2023-02-19T00:49:23;99329.31;;;5.22;79.35
59315;BME280;46521;50.160;20.802;2023-02-19T00:59:25;99325.98;;;5.20;79.37
59315;BME280;46521;50.160;20.802;2023-02-19T01:09:26;99330.41;;;5.19;79.45
59315;BME280;46521;50.160;20.802;2023-02-19T01:19:27;99323.78;;;5.15;79.26
59315;BME280;46521;50.160;20.802;2023-02-19T01:29:29;99307.52;;;5.12;79.49
59315;BME280;46521;50.160;20.802;2023-02-19T01:39:31;99314.14;;;5.06;79.70
59315;BME280;46521;50.160;20.802;2023-02-19T01:49:36;99293.45;;;5.03;79.91
59315;BME280;46521;50.160;20.802;2023-02-19T01:59:40;99280.48;;;5.01;79.50
59315;BME280;46521;50.160;20.802;2023-02-19T02:09:41;99280.23;;;4.95;79.69
59315;BME280;46521;50.160;20.802;2023-02-19T02:20:49;99266.06;;;4.87;79.62
59315;BME280;46521;50.160;20.802;2023-02-19T02:31:03;99278.73;;;4.82;79.89
59315;BME280;46521;50.160;20.802;2023-02-19T02:41:08;99267.58;;;4.80;79.91
59315;BME280;46521;50.160;20.802;2023-02-19T02:51:29;99264.00;;;4.81;79.92
59315;BME280;46521;50.160;20.802;2023-02-19T03:01:38;99244.00;;;4.80;79.90
59315;BME280;46521;50.160;20.802;2023-02-19T03:12:01;99240.41;;;4.72;79.98
59315;BME280;46521;50.160;20.802;2023-02-19T03:22:26;99221.81;;;4.65;80.14
59315;BME280;46521;50.160;20.802;2023-02-19T03:32:35;99225.39;;;4.64;79.96
59315;BME280;46521;50.160;20.802;2023-02-19T03:53:30;99211.91;;;4.59;80.41
59315;BME280;46521;50.160;20.802;2023-02-19T04:03:40;99200.58;;;4.68;80.75
59315;BME280;46521;50.160;20.802;2023-02-19T04:13:46;99182.92;;;4.80;80.63
59315;BME280;46521;50.160;20.802;2023-02-19T04:23:49;99201.12;;;4.81;81.06
59315;BME280;46521;50.160;20.802;2023-02-19T04:33:51;99200.55;;;4.87;80.89
59315;BME280;46521;50.160;20.802;2023-02-19T04:43:52;99190.88;;;4.88;81.29
59315;BME280;46521;50.160;20.802;2023-02-19T04:53:54;99181.64;;;4.94;81.38
59315;BME280;46521;50.160;20.802;2023-02-19T05:03:56;99177.89;;;4.96;81.33
59315;BME280;46521;50.160;20.802;2023-02-19T05:13:58;99174.84;;;5.01;81.41
59315;BME280;46521;50.160;20.802;2023-02-19T05:23:59;99165.59;;;4.97;81.70
59315;BME280;46521;50.160;20.802;2023-02-19T05:34:01;99170.97;;;5.05;81.93
59315;BME280;46521;50.160;20.802;2023-02-19T05:44:06;99163.11;;;5.05;81.99
59315;BME280;46521;50.160;20.802;2023-02-19T05:54:07;99148.86;;;5.08;82.25
59315;BME280;46521;50.160;20.802;2023-02-19T06:04:10;99158.53;;;5.07;82.53
59315;BME280;46521;50.160;20.802;2023-02-19T06:14:12;99144.47;;;5.08;82.88
59315;BME280;46521;50.160;20.802;2023-02-19T06:24:14;99146.80;;;5.11;82.85
59315;BME280;46521;50.160;20.802;2023-02-19T06:34:17;99155.05;;;5.16;83.07
59315;BME280;46521;50.160;20.802;2023-02-19T06:44:19;99148.55;;;5.20;83.20
59315;BME280;46521;50.160;20.802;2023-02-19T06:54:21;99149.08;;;5.24;83.48
59315;BME280;46521;50.160;20.802;2023-02-19T07:04:22;99156.80;;;5.26;83.86
59315;BME280;46521;50.160;20.802;2023-02-19T07:14:24;99148.93;;;5.26;83.61
59315;BME280;46521;50.160;20.802;2023-02-19T07:24:25;99149.60;;;5.28;83.69
59315;BME280;46521;50.160;20.802;2023-02-19T07:34:27;99134.39;;;5.31;83.93
59315;BME280;46521;50.160;20.802;2023-02-19T07:44:28;99130.22;;;5.38;83.77
59315;BME280;46521;50.160;20.802;2023-02-19T07:54:30;99146.63;;;5.40;83.90
59315;BME280;46521;50.160;20.802;2023-02-19T08:04:31;99137.35;;;5.46;84.21
59315;BME280;46521;50.160;20.802;2023-02-19T08:14:33;99140.75;;;5.56;84.23
59315;BME280;46521;50.160;20.802;2023-02-19T08:24:34;99144.41;;;5.64;84.57
59315;BME280;46521;50.160;20.802;2023-02-19T08:34:37;99133.92;;;5.64;84.59
59315;BME280;46521;50.160;20.802;2023-02-19T08:44:39;99135.43;;;5.66;84.20
59315;BME280;46521;50.160;20.802;2023-02-19T08:54:40;99133.32;;;5.70;84.44
59315;BME280;46521;50.160;20.802;2023-02-19T09:04:42;99143.08;;;5.59;84.64
59315;BME280;46521;50.160;20.802;2023-02-19T09:14:44;99139.97;;;5.46;84.28
59315;BME280;46521;50.160;20.802;2023-02-19T09:24:46;99135.23;;;5.32;84.34
59315;BME280;46521;50.160;20.802;2023-02-19T09:34:48;99137.48;;;5.27;84.79
59315;BME280;46521;50.160;20.802;2023-02-19T09:44:53;99158.75;;;5.23;84.71
59315;BME280;46521;50.160;20.802;2023-02-19T09:54:59;99180.94;;;4.92;83.73
59315;BME280;46521;50.160;20.802;2023-02-19T10:05:01;99160.91;;;4.63;83.88
59315;BME280;46521;50.160;20.802;2023-02-19T10:15:33;99171.66;;;4.60;83.84
59315;BME280;46521;50.160;20.802;2023-02-19T10:25:41;99173.32;;;4.51;83.67
59315;BME280;46521;50.160;20.802;2023-02-19T10:35:57;99186.27;;;4.53;83.85
59315;BME280;46521;50.160;20.802;2023-02-19T10:46:04;99206.00;;;4.37;83.51
59315;BME280;46521;50.160;20.802;2023-02-19T10:56:15;99224.61;;;4.14;83.24
59315;BME280;46521;50.160;20.802;2023-02-19T11:06:25;99245.41;;;4.06;82.95
59315;BME280;46521;50.160;20.802;2023-02-19T11:16:51;99251.87;;;3.92;82.50
59315;BME280;46521;50.160;20.802;2023-02-19T11:26:56;99264.94;;;3.83;82.67
59315;BME280;46521;50.160;20.802;2023-02-19T11:37:10;99274.95;;;3.77;83.10
59315;BME280;46521;50.160;20.802;2023-02-19T12:18:57;99305.92;;;3.72;82.21
59315;BME280;46521;50.160;20.802;2023-02-19T12:29:23;99327.04;;;3.50;82.28
59315;BME280;46521;50.160;20.802;2023-02-19T12:59:38;99339.39;;;3.78;82.00
59315;BME280;46521;50.160;20.802;2023-02-19T13:30:52;99374.44;;;3.66;81.52
59315;BME280;46521;50.160;20.802;2023-02-19T13:40:58;99380.19;;;3.60;81.49
59315;BME280;46521;50.160;20.802;2023-02-19T14:02:09;99417.52;;;3.62;81.38
59315;BME280;46521;50.160;20.802;2023-02-19T14:32:45;99435.79;;;3.83;80.96
59315;BME280;46521;50.160;20.802;2023-02-19T14:42:48;99473.11;;;3.85;80.90
59315;BME280;46521;50.160;20.802;2023-02-19T14:52:55;99475.75;;;3.64;80.35
59315;BME280;46521;50.160;20.802;2023-02-19T15:02:58;99504.58;;;3.53;80.84
59315;BME280;46521;50.160;20.802;2023-02-19T15:13:05;99519.55;;;3.51;80.61
59315;BME280;46521;50.160;20.802;2023-02-19T15:23:16;99531.17;;;3.25;79.28
59315;BME280;46521;50.160;20.802;2023-02-19T15:33:19;99548.94;;;3.11;79.70
59315;BME280;46521;50.160;20.802;2023-02-19T15:43:47;99565.34;;;3.01;79.48
59315;BME280;46521;50.160;20.802;2023-02-19T15:53:58;99600.61;;;2.96;79.07
59315;BME280;46521;50.160;20.802;2023-02-19T16:04:09;99602.64;;;2.92;79.19
59315;BME280;46521;50.160;20.802;2023-02-19T16:14:18;99623.08;;;2.87;79.18
59315;BME280;46521;50.160;20.802;2023-02-19T16:24:26;99643.00;;;2.77;78.83
59315;BME280;46521;50.160;20.802;2023-02-19T16:44:40;99685.70;;;2.53;78.96
59315;BME280;46521;50.160;20.802;2023-02-19T16:54:42;99706.59;;;2.53;79.25
59315;BME280;46521;50.160;20.802;2023-02-19T17:04:45;99720.36;;;2.55;78.68
59315;BME280;46521;50.160;20.802;2023-02-19T17:14:47;99750.75;;;2.56;78.41
59315;BME280;46521;50.160;20.802;2023-02-19T17:24:48;99755.27;;;2.54;78.00
59315;BME280;46521;50.160;20.802;2023-02-19T17:34:50;99770.53;;;2.47;77.50
59315;BME280;46521;50.160;20.802;2023-02-19T17:44:51;99787.49;;;2.42;77.47
59315;BME280;46521;50.160;20.802;2023-02-19T17:54:53;99796.38;;;2.39;77.90
59315;BME280;46521;50.160;20.802;2023-02-19T18:04:55;99812.74;;;2.41;77.51
59315;BME280;46521;50.160;20.802;2023-02-19T18:14:56;99828.30;;;2.43;77.40
59315;BME280;46521;50.160;20.802;2023-02-19T18:24:58;99843.02;;;2.44;77.14
59315;BME280;46521;50.160;20.802;2023-02-19T18:35:00;99860.14;;;2.48;77.00
59315;BME280;46521;50.160;20.802;2023-02-19T18:45:02;99887.34;;;2.32;77.36
59315;BME280;46521;50.160;20.802;2023-02-19T18:55:05;99901.97;;;2.22;77.39
59315;BME280;46521;50.160;20.802;2023-02-19T19:05:06;99910.23;;;2.16;77.12
59315;BME280;46521;50.160;20.802;2023-02-19T19:15:08;99922.23;;;2.19;77.23
59315;BME280;46521;50.160;20.802;2023-02-19T19:25:10;99924.13;;;2.16;76.94
59315;BME280;46521;50.160;20.802;2023-02-19T19:35:15;99938.43;;;2.11;77.05
59315;BME280;46521;50.160;20.802;2023-02-19T19:45:17;99936.47;;;1.89;76.89
59315;BME280;46521;50.160;20.802;2023-02-19T19:55:18;99961.94;;;1.85;76.83
59315;BME280;46521;50.160;20.802;2023-02-19T20:05:21;99971.11;;;1.78;76.52
59315;BME280;46521;50.160;20.802;2023-02-19T20:15:23;99974.64;;;1.77;76.56
59315;BME280;46521;50.160;20.802;2023-02-19T20:25:24;99996.98;;;1.81;76.49
59315;BME280;46521;50.160;20.802;2023-02-19T20:35:26;100001.27;;;1.82;76.67
59315;BME280;46521;50.160;20.802;2023-02-19T20:45:29;99997.18;;;1.78;76.21
59315;BME280;46521;50.160;20.802;2023-02-19T20:55:31;100007.41;;;1.68;76.11
59315;BME280;46521;50.160;20.802;2023-02-19T21:05:32;100017.61;;;1.58;76.28
59315;BME280;46521;50.160;20.802;2023-02-19T21:15:34;100031.45;;;1.46;76.10
59315;BME280;46521;50.160;20.802;2023-02-19T21:25:35;100042.56;;;1.35;75.79
59315;BME280;46521;50.160;20.802;2023-02-19T21:35:37;100058.89;;;1.24;76.21
59315;BME280;46521;50.160;20.802;2023-02-19T21:45:38;100079.59;;;1.13;76.13
59315;BME280;46521;50.160;20.802;2023-02-19T21:55:40;100081.81;;;1.05;76.61
59315;BME280;46521;50.160;20.802;2023-02-19T22:05:44;100097.95;;;0.97;76.33
59315;BME280;46521;50.160;20.802;2023-02-19T22:15:46;100106.97;;;0.92;76.10
59315;BME280;46521;50.160;20.802;2023-02-19T22:25:47;100115.06;;;0.87;75.85
59315;BME280;46521;50.160;20.802;2023-02-19T22:35:49;100130.61;;;0.74;76.32
59315;BME280;46521;50.160;20.802;2023-02-19T22:45:50;100143.27;;;0.66;76.24
59315;BME280;46521;50.160;20.802;2023-02-19T22:55:52;100149.20;;;0.53;76.51
59315;BME280;46521;50.160;20.802;2023-02-19T23:05:53;100172.39;;;0.42;76.70
59315;BME280;46521;50.160;20.802;2023-02-19T23:15:54;100168.67;;;0.32;76.64
59315;BME280;46521;50.160;20.802;2023-02-19T23:25:56;100171.28;;;0.32;76.74
59315;BME280;46521;50.160;20.802;2023-02-19T23:35:57;100174.80;;;0.31;76.68
59315;BME280;46521;50.160;20.802;2023-02-19T23:45:59;100180.17;;;0.28;76.75
